createdAt,value
2019-02-07T00:01:34.629Z,56.50
2019-02-07T00:04:03.927Z,56.50
2019-02-07T00:06:33.335Z,56.50
2019-02-07T00:09:05.097Z,56.50
2019-02-07T00:11:35.081Z,56.50
2019-02-07T00:14:04.993Z,56.50
2019-02-07T00:16:34.429Z,56.50
2019-02-07T00:19:03.951Z,56.70
2019-02-07T00:21:33.339Z,56.60
2019-02-07T00:24:07.646Z,56.70
2019-02-07T00:26:37.121Z,56.70
2019-02-07T00:29:06.645Z,56.70
2019-02-07T00:31:36.033Z,56.80
2019-02-07T00:34:12.535Z,56.90
2019-02-07T00:36:41.753Z,56.80
2019-02-07T00:39:11.226Z,56.90
2019-02-07T00:41:40.689Z,57.00
2019-02-07T00:44:10.103Z,57.00
2019-02-07T00:46:39.499Z,57.00
2019-02-07T00:49:09.013Z,57.00
2019-02-07T00:51:39.378Z,56.90
2019-02-07T00:54:08.822Z,57.10
2019-02-07T00:56:39.866Z,57.00
2019-02-07T00:59:09.324Z,57.00
2019-02-07T01:01:38.687Z,56.90
2019-02-07T01:04:08.140Z,56.90
2019-02-07T01:06:37.399Z,57.00
2019-02-07T01:09:08.552Z,57.00
2019-02-07T01:11:37.950Z,57.00
2019-02-07T01:14:07.373Z,56.90
2019-02-07T01:16:36.734Z,56.90
2019-02-07T01:19:06.076Z,56.80
2019-02-07T01:21:35.457Z,56.80
2019-02-07T01:24:06.811Z,56.80
2019-02-07T01:26:36.219Z,56.70
2019-02-07T01:29:05.606Z,56.80
2019-02-07T01:31:35.058Z,57.50
2019-02-07T01:34:09.986Z,56.80
2019-02-07T01:36:39.368Z,56.90
2019-02-07T01:39:09.619Z,56.80
2019-02-07T01:41:39.460Z,57.00
2019-02-07T01:44:08.800Z,56.90
2019-02-07T01:46:38.198Z,56.90
2019-02-07T01:49:07.660Z,56.90
2019-02-07T01:51:36.998Z,56.90
2019-02-07T01:54:06.472Z,56.90
2019-02-07T01:56:35.795Z,56.90
2019-02-07T01:59:05.138Z,56.80
2019-02-07T02:01:35.424Z,56.80
2019-02-07T02:04:05.067Z,56.80
2019-02-07T02:06:34.428Z,56.80
2019-02-07T02:09:07.851Z,56.70
2019-02-07T02:11:37.523Z,56.70
2019-02-07T02:14:08.019Z,56.70
2019-02-07T02:16:37.395Z,56.70
2019-02-07T02:19:06.789Z,56.60
2019-02-07T02:21:36.303Z,56.60
2019-02-07T02:24:05.763Z,56.50
2019-02-07T02:26:35.183Z,56.40
2019-02-07T02:29:04.774Z,56.40
2019-02-07T02:31:34.155Z,56.40
2019-02-07T02:34:06.126Z,56.40
2019-02-07T02:36:35.528Z,56.40
2019-02-07T02:39:07.976Z,56.30
2019-02-07T02:41:37.340Z,56.30
2019-02-07T02:44:06.778Z,56.30
2019-02-07T02:46:36.159Z,56.40
2019-02-07T02:49:05.561Z,56.50
2019-02-07T02:51:34.921Z,56.50
2019-02-07T02:54:04.827Z,56.50
2019-02-07T02:56:34.171Z,56.50
2019-02-07T02:59:03.543Z,56.50
2019-02-07T03:01:54.002Z,56.50
2019-02-07T03:04:30.182Z,56.40
2019-02-07T03:07:33.614Z,56.50
2019-02-07T03:10:20.716Z,56.50
2019-02-07T03:13:02.699Z,56.50
2019-02-07T03:15:55.332Z,56.50
2019-02-07T03:18:41.862Z,56.50
2019-02-07T03:21:26.333Z,57.20
2019-02-07T03:24:13.538Z,56.70
2019-02-07T03:27:03.514Z,56.70
2019-02-07T03:29:54.744Z,56.70
2019-02-07T03:32:49.234Z,56.70
2019-02-07T03:35:35.146Z,56.70
2019-02-07T03:38:32.767Z,56.70
2019-02-07T03:41:33.021Z,56.70
2019-02-07T03:44:10.208Z,56.70
2019-02-07T03:47:04.632Z,56.70
2019-02-07T03:49:52.036Z,56.70
2019-02-07T03:52:34.865Z,56.70
2019-02-07T03:55:26.534Z,56.80
2019-02-07T03:58:33.184Z,56.80
2019-02-07T04:01:21.266Z,56.70
2019-02-07T04:04:21.721Z,56.70
2019-02-07T04:07:08.664Z,56.60
2019-02-07T04:09:55.797Z,56.50
2019-02-07T04:12:38.434Z,56.10
2019-02-07T04:15:19.243Z,56.50
2019-02-07T04:18:16.433Z,56.50
2019-02-07T04:21:13.800Z,56.50
2019-02-07T04:24:11.971Z,56.60
2019-02-07T04:27:05.793Z,56.60
2019-02-07T04:30:03.494Z,56.50
2019-02-07T04:32:50.702Z,56.50
2019-02-07T04:35:47.778Z,56.50
2019-02-07T04:38:26.265Z,56.50
2019-02-07T04:41:13.266Z,56.50
2019-02-07T04:44:00.415Z,56.40
2019-02-07T04:46:47.387Z,56.50
2019-02-07T04:49:24.935Z,56.40
2019-02-07T04:52:19.411Z,56.40
2019-02-07T04:55:06.438Z,56.40
2019-02-07T04:57:54.908Z,56.40
2019-02-07T05:00:52.344Z,56.40
2019-02-07T05:03:42.208Z,56.50
2019-02-07T05:06:30.631Z,56.40
2019-02-07T05:09:18.061Z,56.50
2019-02-07T05:12:05.220Z,56.60
2019-02-07T05:14:51.840Z,56.60
2019-02-07T05:17:56.702Z,56.60
2019-02-07T05:20:43.551Z,56.70
2019-02-07T05:23:23.115Z,56.70
2019-02-07T05:26:00.301Z,56.60
2019-02-07T05:28:57.698Z,56.70
2019-02-07T05:31:47.876Z,56.60
2019-02-07T05:34:31.024Z,56.70
2019-02-07T05:37:25.224Z,56.70
2019-02-07T05:40:37.919Z,56.70
2019-02-07T05:43:30.656Z,56.80
2019-02-07T05:46:25.039Z,56.80
2019-02-07T05:49:13.160Z,56.70
2019-02-07T05:52:01.849Z,56.70
2019-02-07T05:54:48.797Z,56.80
2019-02-07T05:57:35.533Z,56.80
2019-02-07T06:00:19.413Z,56.80
2019-02-07T06:03:09.662Z,56.90
2019-02-07T06:05:57.707Z,56.90
2019-02-07T06:08:51.009Z,57.00
2019-02-07T06:11:43.835Z,57.20
2019-02-07T06:17:38.845Z,57.70
2019-02-07T06:20:33.867Z,57.70
2019-02-07T06:23:20.801Z,57.70
2019-02-07T06:26:09.036Z,57.70
2019-02-07T06:29:00.185Z,57.70
2019-02-07T06:31:47.486Z,57.60
2019-02-07T06:34:47.713Z,57.50
2019-02-07T06:37:39.176Z,57.40
2019-02-07T06:40:24.514Z,57.40
2019-02-07T06:43:12.110Z,57.40
2019-02-07T06:46:02.138Z,57.40
2019-02-07T06:48:53.222Z,57.40
2019-02-07T06:51:41.184Z,57.30
2019-02-07T06:54:29.698Z,57.40
2019-02-07T06:57:18.103Z,57.30
2019-02-07T06:59:57.012Z,57.40
2019-02-07T07:02:53.080Z,57.40
2019-02-07T07:05:35.762Z,57.30
2019-02-07T07:08:24.932Z,57.20
2019-02-07T07:11:17.964Z,57.20
2019-02-07T07:15:08.162Z,57.10
2019-02-07T07:18:38.452Z,57.10
2019-02-07T07:21:42.839Z,57.00
2019-02-07T07:24:33.820Z,57.00
2019-02-07T07:27:25.922Z,57.00
2019-02-07T07:30:17.158Z,56.90
2019-02-07T07:33:05.000Z,56.90
2019-02-07T07:35:56.203Z,57.00
2019-02-07T07:38:56.324Z,57.20
2019-02-07T07:41:41.468Z,57.10
2019-02-07T07:44:44.229Z,57.00
2019-02-07T07:47:36.904Z,57.00
2019-02-07T07:50:54.719Z,56.80
2019-02-07T07:53:47.937Z,56.80
2019-02-07T07:56:34.916Z,56.90
2019-02-07T07:59:24.600Z,56.90
2019-02-07T08:02:14.837Z,57.00
2019-02-07T08:05:06.093Z,56.90
2019-02-07T08:08:06.989Z,56.80
2019-02-07T08:10:55.419Z,56.90
2019-02-07T08:13:45.562Z,57.10
2019-02-07T08:16:24.619Z,58.00
2019-02-07T08:19:11.743Z,58.20
2019-02-07T08:22:09.385Z,58.30
2019-02-07T08:24:48.630Z,58.20
2019-02-07T08:27:29.945Z,58.00
2019-02-07T08:30:18.567Z,58.20
2019-02-07T08:33:17.592Z,56.80
2019-02-07T08:36:28.427Z,57.30
2019-02-07T08:39:24.905Z,57.10
2019-02-07T08:42:13.130Z,56.40
2019-02-07T08:45:16.608Z,55.60
2019-02-07T08:48:07.548Z,55.40
2019-02-07T08:50:55.126Z,55.20
2019-02-07T08:53:36.032Z,55.20
2019-02-07T08:56:23.826Z,55.00
2019-02-07T08:59:14.222Z,55.00
2019-02-07T09:01:56.074Z,54.90
2019-02-07T09:04:43.476Z,55.00
2019-02-07T09:07:38.215Z,54.80
2019-02-07T09:10:36.570Z,54.50
2019-02-07T09:13:23.816Z,54.20
2019-02-07T09:16:15.214Z,53.70
2019-02-07T09:19:06.120Z,53.60
2019-02-07T09:22:08.291Z,53.30
2019-02-07T09:25:03.986Z,53.20
2019-02-07T09:28:01.610Z,52.80
2019-02-07T09:30:48.487Z,53.20
2019-02-07T09:33:51.952Z,53.30
2019-02-07T09:36:56.312Z,53.20
2019-02-07T09:39:35.523Z,53.20
2019-02-07T09:42:31.492Z,53.30
2019-02-07T09:45:12.845Z,53.00
2019-02-07T09:47:59.575Z,52.60
2019-02-07T09:50:38.292Z,52.30
2019-02-07T09:53:23.990Z,52.60
2019-02-07T09:55:59.714Z,52.40
2019-02-07T09:58:47.473Z,51.90
2019-02-07T10:01:35.843Z,52.00
2019-02-07T10:04:32.547Z,52.00
2019-02-07T10:07:24.898Z,52.10
2019-02-07T10:10:12.941Z,52.40
2019-02-07T10:13:19.389Z,52.00
2019-02-07T10:16:08.164Z,52.00
2019-02-07T10:18:54.968Z,52.10
2019-02-07T10:21:52.522Z,52.40
2019-02-07T10:24:40.885Z,52.10
2019-02-07T10:44:20.257Z,51.00
2019-02-07T10:47:05.850Z,52.80
2019-02-07T10:49:59.262Z,53.60
2019-02-07T10:52:59.102Z,53.80
2019-02-07T10:55:46.188Z,53.60
2019-02-07T10:58:43.887Z,53.40
2019-02-07T11:01:37.424Z,53.30
2019-02-07T11:04:28.518Z,53.10
2019-02-07T11:07:31.936Z,53.10
2019-02-07T11:10:18.831Z,53.00
2019-02-07T11:13:19.166Z,52.90
2019-02-07T11:16:25.666Z,52.90
2019-02-07T11:19:25.831Z,52.80
2019-02-07T11:22:19.920Z,52.70
2019-02-07T11:24:58.979Z,52.60
2019-02-07T11:27:42.442Z,52.60
2019-02-07T11:30:36.715Z,52.50
2019-02-07T11:33:26.965Z,52.60
2019-02-07T11:36:14.121Z,52.40
2019-02-07T11:39:18.104Z,52.30
2019-02-07T11:42:16.828Z,52.20
2019-02-07T11:45:05.711Z,52.20
2019-02-07T11:48:01.535Z,52.10
2019-02-07T11:50:56.222Z,52.10
2019-02-07T11:53:50.641Z,52.10
2019-02-07T11:56:54.255Z,52.10
2019-02-07T11:59:42.591Z,52.00
2019-02-07T12:02:23.445Z,51.90
2019-02-07T12:05:10.303Z,52.00
2019-02-07T12:07:58.725Z,51.90
2019-02-07T12:10:38.253Z,52.20
2019-02-07T12:13:34.912Z,51.90
2019-02-07T12:16:26.391Z,52.10
2019-02-07T12:19:18.007Z,52.60
2019-02-07T12:22:09.343Z,52.00
2019-02-07T12:25:09.668Z,51.70
2019-02-07T12:28:07.402Z,51.20
2019-02-07T12:30:54.524Z,51.20
2019-02-07T12:33:42.930Z,51.10
2019-02-07T12:36:31.392Z,51.10
2019-02-07T12:39:19.720Z,50.60
2019-02-07T12:42:09.533Z,50.20
2019-02-07T12:45:03.119Z,50.10
2019-02-07T12:47:56.756Z,49.90
2019-02-07T12:50:57.810Z,50.00
2019-02-07T12:53:47.146Z,49.80
2019-02-07T12:56:48.426Z,50.00
2019-02-07T12:59:29.228Z,49.80
2019-02-07T13:02:11.910Z,49.60
2019-02-07T13:04:55.648Z,49.80
2019-02-07T13:07:44.035Z,50.00
2019-02-07T13:10:24.973Z,50.00
2019-02-07T13:13:12.205Z,49.80
2019-02-07T13:15:59.244Z,49.70
2019-02-07T13:18:50.569Z,49.70
2019-02-07T13:21:48.453Z,49.60
2019-02-07T13:24:36.729Z,49.70
2019-02-07T13:27:34.498Z,49.80
2019-02-07T13:30:34.222Z,49.80
2019-02-07T13:33:21.293Z,50.00
2019-02-07T13:36:15.521Z,50.10
2019-02-07T13:39:11.683Z,49.90
2019-02-07T13:41:49.063Z,49.80
2019-02-07T13:44:47.115Z,49.70
2019-02-07T13:47:38.471Z,49.90
2019-02-07T13:50:46.060Z,49.80
2019-02-07T13:53:40.449Z,49.80
2019-02-07T13:56:33.168Z,49.70
2019-02-07T13:59:22.528Z,49.70
2019-02-07T14:02:18.180Z,49.80
2019-02-07T14:05:12.725Z,49.90
2019-02-07T14:08:00.258Z,50.10
2019-02-07T14:10:54.604Z,50.10
2019-02-07T14:13:49.118Z,50.00
2019-02-07T14:16:43.550Z,50.10
2019-02-07T14:19:34.486Z,50.20
2019-02-07T14:22:14.402Z,50.20
2019-02-07T14:24:59.148Z,50.20
2019-02-07T14:27:52.055Z,50.20
2019-02-07T14:30:52.856Z,50.20
2019-02-07T14:33:41.692Z,50.20
2019-02-07T14:36:32.274Z,50.10
2019-02-07T14:39:32.916Z,50.10
2019-02-07T14:42:25.040Z,50.20
2019-02-07T14:45:13.044Z,50.30
2019-02-07T14:47:43.006Z,50.20
2019-02-07T14:50:14.866Z,50.30
2019-02-07T14:52:45.682Z,50.50
2019-02-07T14:55:15.759Z,50.70
2019-02-07T14:57:46.903Z,50.80
2019-02-07T15:00:25.131Z,50.90
2019-02-07T15:02:55.662Z,51.00
2019-02-07T15:05:25.625Z,51.10
2019-02-07T15:07:55.525Z,51.30
2019-02-07T15:10:25.576Z,51.20
2019-02-07T15:12:54.883Z,51.30
2019-02-07T15:15:24.277Z,51.40
2019-02-07T15:17:54.023Z,51.50
2019-02-07T15:20:26.113Z,51.70
2019-02-07T15:22:56.279Z,51.80
2019-02-07T15:25:52.825Z,52.00
2019-02-07T15:28:22.712Z,52.10
2019-02-07T15:30:56.461Z,52.40
2019-02-07T15:33:26.064Z,52.50
2019-02-07T15:35:55.379Z,52.70
2019-02-07T15:38:24.763Z,52.90
2019-02-07T15:40:56.131Z,53.00
2019-02-07T15:43:25.648Z,53.30
2019-02-07T15:45:55.623Z,53.40
2019-02-07T15:48:25.231Z,53.60
2019-02-07T15:50:54.656Z,53.80
2019-02-07T15:53:24.007Z,54.00
2019-02-07T15:55:53.397Z,54.10
2019-02-07T15:58:33.547Z,54.20
2019-02-07T16:01:09.683Z,54.40
2019-02-07T16:03:45.701Z,54.50
2019-02-07T16:06:15.224Z,54.60
2019-02-07T16:08:44.900Z,54.70
2019-02-07T16:11:14.433Z,54.80
2019-02-07T16:14:04.869Z,55.10
2019-02-07T16:16:39.335Z,55.50
2019-02-07T16:19:20.574Z,55.50
2019-02-07T16:21:58.410Z,55.70
2019-02-07T16:24:51.560Z,55.90
2019-02-07T16:27:31.606Z,56.00
2019-02-07T16:29:59.309Z,56.00
2019-02-07T16:32:28.690Z,56.00
2019-02-07T16:35:05.515Z,56.20
2019-02-07T16:37:34.838Z,56.40
2019-02-07T16:40:04.964Z,56.50
2019-02-07T16:42:34.684Z,56.70
2019-02-07T16:45:05.738Z,56.70
2019-02-07T16:47:35.195Z,56.80
2019-02-07T16:50:09.510Z,57.00
2019-02-07T16:52:44.744Z,57.10
2019-02-07T16:55:14.496Z,57.10
2019-02-07T16:57:44.199Z,57.30
2019-02-07T17:00:19.593Z,57.40
2019-02-07T17:02:49.226Z,57.40
2019-02-07T17:05:20.413Z,57.50
2019-02-07T17:07:50.221Z,57.60
2019-02-07T17:10:24.173Z,57.80
2019-02-07T17:12:56.663Z,57.90
2019-02-07T17:15:26.061Z,58.00
2019-02-07T17:17:55.876Z,58.10
2019-02-07T17:20:29.883Z,58.20
2019-02-07T17:23:00.896Z,58.30
2019-02-07T17:25:31.437Z,58.40
2019-02-07T17:28:01.251Z,58.50
2019-02-07T17:30:31.101Z,58.60
2019-02-07T17:33:01.032Z,58.70
2019-02-07T17:35:37.049Z,58.70
2019-02-07T17:38:06.764Z,58.70
2019-02-07T17:40:36.214Z,58.80
2019-02-07T17:43:05.931Z,58.80
2019-02-07T17:45:35.640Z,58.90
2019-02-07T17:48:06.530Z,58.90
2019-02-07T17:50:36.617Z,58.90
2019-02-07T17:53:06.844Z,59.10
2019-02-07T17:55:37.358Z,59.10
2019-02-07T17:58:08.953Z,59.10
2019-02-07T18:00:45.226Z,59.10
2019-02-07T18:03:15.043Z,59.70
2019-02-07T18:05:47.210Z,59.20
2019-02-07T18:08:16.733Z,59.20
2019-02-07T18:10:46.603Z,59.20
2019-02-07T18:13:16.225Z,59.20
2019-02-07T18:15:45.652Z,59.20
2019-02-07T18:18:15.173Z,59.30
2019-02-07T18:20:44.518Z,59.30
2019-02-07T18:23:13.896Z,59.30
2019-02-07T18:25:43.660Z,59.40
2019-02-07T18:28:13.339Z,59.40
2019-02-07T18:30:42.994Z,59.50
2019-02-07T18:33:12.282Z,59.50
2019-02-07T18:35:44.316Z,59.40
2019-02-07T18:38:13.696Z,59.50
2019-02-07T18:40:43.450Z,59.40
2019-02-07T18:43:12.845Z,59.40
2019-02-07T18:45:42.280Z,59.40
2019-02-07T18:48:11.715Z,59.50
2019-02-07T18:50:42.630Z,59.50
2019-02-07T18:53:19.989Z,59.60
2019-02-07T18:55:51.665Z,59.60
2019-02-07T18:58:21.062Z,59.70
2019-02-07T19:00:50.637Z,59.70
2019-02-07T19:03:20.313Z,59.70
2019-02-07T19:05:50.219Z,59.70
2019-02-07T19:08:19.746Z,59.80
2019-02-07T19:10:49.387Z,59.80
2019-02-07T19:13:22.245Z,59.80
2019-02-07T19:16:57.267Z,59.80
2019-02-07T19:18:41.575Z,59.90
2019-02-07T19:21:19.155Z,59.90
2019-02-07T19:23:49.741Z,60.00
2019-02-07T19:26:20.669Z,60.00
2019-02-07T19:28:54.271Z,60.10
2019-02-07T19:31:25.147Z,60.20
2019-02-07T19:33:55.085Z,60.50
2019-02-07T19:36:24.524Z,60.30
2019-02-07T19:41:44.508Z,60.40
2019-02-07T19:44:14.175Z,60.40
2019-02-07T19:46:45.598Z,60.50
2019-02-07T19:49:22.143Z,60.50
2019-02-07T19:51:51.894Z,60.50
2019-02-07T19:54:25.691Z,60.30
2019-02-07T19:56:55.515Z,60.30
2019-02-07T19:59:26.560Z,60.30
2019-02-07T20:01:57.472Z,60.30
2019-02-07T20:04:32.418Z,60.10
2019-02-07T20:07:10.196Z,60.00
2019-02-07T20:09:41.678Z,60.00
2019-02-07T20:12:11.534Z,60.00
2019-02-07T20:14:40.934Z,60.00
2019-02-07T20:17:10.722Z,60.00
2019-02-07T20:19:40.713Z,60.00
2019-02-07T20:22:19.850Z,60.10
2019-02-07T20:24:46.321Z,60.10
2019-02-07T20:27:15.924Z,60.10
2019-02-07T20:29:45.400Z,60.00
2019-02-07T20:32:14.915Z,60.00
2019-02-07T20:34:44.381Z,60.00
2019-02-07T20:37:14.550Z,60.00
2019-02-07T20:39:45.270Z,60.00
2019-02-07T20:42:14.993Z,60.00
2019-02-07T20:44:47.499Z,60.00
2019-02-07T20:47:17.029Z,60.00
2019-02-07T20:49:46.464Z,60.00
2019-02-07T20:52:16.308Z,60.00
2019-02-07T20:54:48.168Z,60.00
2019-02-07T20:57:17.567Z,60.00
2019-02-07T20:59:46.946Z,60.10
2019-02-07T21:02:16.541Z,60.10
2019-02-07T21:04:45.939Z,60.00
2019-02-07T21:07:16.825Z,60.00
2019-02-07T21:09:46.299Z,60.00
2019-02-07T21:12:15.767Z,60.00
2019-02-07T21:14:45.191Z,60.10
2019-02-07T21:17:15.183Z,60.00
2019-02-07T21:19:45.049Z,60.00
2019-02-07T21:22:16.194Z,60.00
2019-02-07T21:24:46.195Z,60.00
2019-02-07T21:27:16.201Z,60.10
2019-02-07T21:29:45.989Z,60.10
2019-02-07T21:32:15.815Z,60.20
2019-02-07T21:34:45.793Z,60.40
2019-02-07T21:37:15.279Z,60.30
2019-02-07T21:39:44.967Z,60.20
2019-02-07T21:42:14.746Z,60.30
2019-02-07T21:44:44.304Z,60.20
2019-02-07T21:47:14.744Z,60.30
2019-02-07T21:49:44.225Z,60.30
2019-02-07T21:52:13.983Z,60.40
2019-02-07T21:54:43.767Z,60.30
2019-02-07T21:57:13.277Z,60.40
2019-02-07T21:59:43.006Z,60.20
2019-02-07T22:02:16.284Z,60.30
2019-02-07T22:04:45.808Z,60.10
2019-02-07T22:07:16.022Z,60.20
2019-02-07T22:09:46.050Z,60.30
2019-02-07T22:12:15.812Z,60.50
2019-02-07T22:14:45.508Z,60.40
2019-02-07T22:17:15.032Z,60.40
2019-02-07T22:19:46.138Z,60.50
2019-02-07T22:22:15.800Z,60.50
2019-02-07T22:24:45.446Z,60.60
2019-02-07T22:27:15.722Z,60.60
2019-02-07T22:29:45.677Z,60.60
2019-02-07T22:32:17.973Z,60.60
2019-02-07T22:34:47.836Z,60.60
2019-02-07T22:37:18.358Z,61.50
2019-02-07T22:39:47.949Z,61.80
2019-02-07T22:42:17.637Z,61.70
2019-02-07T22:44:47.200Z,61.40
2019-02-07T22:47:16.921Z,61.40
2019-02-07T22:49:46.383Z,61.20
2019-02-07T22:52:15.911Z,61.10
2019-02-07T22:54:45.567Z,61.20
2019-02-07T22:57:15.280Z,61.00
2019-02-07T22:59:45.108Z,61.10
2019-02-07T23:02:15.521Z,61.10
2019-02-07T23:04:45.223Z,61.10
2019-02-07T23:07:14.731Z,61.20
2019-02-07T23:09:44.215Z,61.20
2019-02-07T23:12:13.941Z,61.20
2019-02-07T23:14:43.439Z,61.20
2019-02-07T23:17:12.883Z,61.30
2019-02-07T23:19:52.341Z,61.20
2019-02-07T23:22:21.878Z,61.20
2019-02-07T23:24:51.318Z,61.20
2019-02-07T23:27:21.160Z,61.40
2019-02-07T23:29:50.707Z,61.30
2019-02-07T23:32:20.242Z,61.40
2019-02-07T23:34:49.670Z,61.40
2019-02-07T23:37:19.063Z,61.50
2019-02-07T23:39:48.488Z,61.50
2019-02-07T23:42:17.895Z,61.60
2019-02-07T23:44:47.476Z,61.50
2019-02-07T23:47:16.923Z,61.50
2019-02-07T23:49:46.598Z,61.60
2019-02-07T23:52:16.689Z,61.50
2019-02-07T23:54:46.179Z,61.60
2019-02-07T23:57:15.551Z,61.50
2019-02-07T23:59:44.951Z,61.50
